createdAt,value
2019-01-16T00:01:18.219Z,1.92
2019-01-16T00:04:17.726Z,1.98
2019-01-16T00:07:08.524Z,2.05
2019-01-16T00:09:47.116Z,2.04
2019-01-16T00:12:33.806Z,1.98
2019-01-16T00:15:32.138Z,1.94
2019-01-16T00:18:28.814Z,2.03
2019-01-16T00:21:07.847Z,1.91
2019-01-16T00:24:08.001Z,1.85
2019-01-16T00:26:59.037Z,1.93
2019-01-16T00:29:48.191Z,1.88
2019-01-16T00:32:26.513Z,1.83
2019-01-16T00:35:16.037Z,1.81
2019-01-16T00:38:05.634Z,1.87
2019-01-16T00:40:52.139Z,1.82
2019-01-16T00:43:40.403Z,1.95
2019-01-16T00:46:29.669Z,1.98
2019-01-16T00:49:26.604Z,1.93
2019-01-16T00:52:13.296Z,1.85
2019-01-16T00:54:53.663Z,1.86
2019-01-16T00:57:41.671Z,1.86
2019-01-16T01:00:44.708Z,1.78
2019-01-16T01:03:26.250Z,1.83
2019-01-16T01:06:12.040Z,1.86
2019-01-16T01:09:11.711Z,1.86
2019-01-16T01:11:52.756Z,1.90
2019-01-16T01:14:46.717Z,1.87
2019-01-16T01:17:40.593Z,1.96
2019-01-16T01:20:37.513Z,1.91
2019-01-16T01:23:30.841Z,1.90
2019-01-16T01:26:30.594Z,1.97
2019-01-16T01:29:19.362Z,2.01
2019-01-16T01:32:08.723Z,1.88
2019-01-16T01:35:04.290Z,1.97
2019-01-16T01:38:06.966Z,2.04
2019-01-16T01:41:00.552Z,1.94
2019-01-16T01:44:03.631Z,1.99
2019-01-16T01:47:03.386Z,1.91
2019-01-16T01:49:54.314Z,1.93
2019-01-16T01:52:43.715Z,1.99
2019-01-16T01:55:49.612Z,1.96
2019-01-16T01:58:34.048Z,1.86
2019-01-16T02:01:30.909Z,2.01
2019-01-16T02:04:24.509Z,2.06
2019-01-16T02:07:14.143Z,1.94
2019-01-16T02:10:10.746Z,2.03
2019-01-16T02:12:58.952Z,1.97
2019-01-16T02:15:49.803Z,1.99
2019-01-16T02:18:29.054Z,1.89
2019-01-16T02:21:35.193Z,1.96
2019-01-16T02:24:24.504Z,1.97
2019-01-16T02:27:08.862Z,2.06
2019-01-16T02:30:14.529Z,2.06
2019-01-16T02:33:17.554Z,2.03
2019-01-16T02:35:59.963Z,2.09
2019-01-16T02:39:02.665Z,1.84
2019-01-16T02:41:55.407Z,1.92
2019-01-16T02:44:44.591Z,1.94
2019-01-16T02:47:53.604Z,1.92
2019-01-16T02:50:32.423Z,1.93
2019-01-16T02:53:41.218Z,1.98
2019-01-16T02:56:19.881Z,1.96
2019-01-16T02:59:16.564Z,1.79
2019-01-16T03:02:07.422Z,1.77
2019-01-16T03:05:01.457Z,1.89
2019-01-16T03:07:56.430Z,1.82
2019-01-16T03:10:45.640Z,1.84
2019-01-16T03:13:24.087Z,1.84
2019-01-16T03:16:24.143Z,1.91
2019-01-16T03:19:14.001Z,1.88
2019-01-16T03:22:03.247Z,1.77
2019-01-16T03:24:58.731Z,1.88
2019-01-16T03:27:52.546Z,1.83
2019-01-16T03:30:40.964Z,1.81
2019-01-16T03:33:46.996Z,1.90
2019-01-16T03:36:31.545Z,1.82
2019-01-16T03:39:14.402Z,1.78
2019-01-16T03:41:53.577Z,1.87
2019-01-16T03:44:31.538Z,1.85
2019-01-16T03:47:25.269Z,1.68
2019-01-16T03:50:13.403Z,1.70
2019-01-16T03:52:58.847Z,1.83
2019-01-16T03:55:49.621Z,1.76
2019-01-16T03:58:38.795Z,1.72
2019-01-16T04:01:32.596Z,1.73
2019-01-16T04:04:25.216Z,1.73
2019-01-16T04:07:16.089Z,1.76
2019-01-16T04:10:05.401Z,1.73
2019-01-16T04:13:04.826Z,1.78
2019-01-16T04:16:04.859Z,1.82
2019-01-16T04:19:07.753Z,1.71
2019-01-16T04:21:58.985Z,1.66
2019-01-16T04:24:38.199Z,1.46
2019-01-16T04:27:27.146Z,1.62
2019-01-16T04:30:23.903Z,1.68
2019-01-16T04:33:20.729Z,1.72
2019-01-16T04:36:17.774Z,1.77
2019-01-16T04:39:03.905Z,1.81
2019-01-16T04:41:42.460Z,1.72
2019-01-16T04:44:25.199Z,1.72
2019-01-16T04:47:15.797Z,1.58
2019-01-16T04:50:04.908Z,1.82
2019-01-16T04:52:57.996Z,1.64
2019-01-16T04:55:51.095Z,1.69
2019-01-16T04:58:41.854Z,1.69
2019-01-16T05:01:53.921Z,1.65
2019-01-16T05:04:44.619Z,1.57
2019-01-16T05:07:38.308Z,1.67
2019-01-16T05:10:27.772Z,1.57
2019-01-16T05:13:16.524Z,1.66
2019-01-16T05:16:11.119Z,1.53
2019-01-16T05:19:17.156Z,1.66
2019-01-16T05:21:59.533Z,1.57
2019-01-16T05:24:58.221Z,1.65
2019-01-16T05:27:53.344Z,1.58
2019-01-16T05:30:36.730Z,1.45
2019-01-16T05:33:27.393Z,1.53
2019-01-16T05:36:08.990Z,1.63
2019-01-16T05:38:59.700Z,1.50
2019-01-16T05:41:54.014Z,1.68
2019-01-16T05:44:47.803Z,1.50
2019-01-16T05:47:38.457Z,1.55
2019-01-16T05:50:20.847Z,1.57
2019-01-16T05:53:10.199Z,1.59
2019-01-16T05:56:01.429Z,1.57
2019-01-16T05:58:52.958Z,1.38
2019-01-16T06:01:46.713Z,1.70
2019-01-16T06:04:52.648Z,1.68
2019-01-16T06:07:46.337Z,1.61
2019-01-16T06:10:35.688Z,1.40
2019-01-16T06:13:27.583Z,1.47
2019-01-16T06:16:12.577Z,1.47
2019-01-16T06:18:51.685Z,1.63
2019-01-16T06:21:45.196Z,1.54
2019-01-16T06:24:45.143Z,1.68
2019-01-16T06:27:34.823Z,1.65
2019-01-16T06:30:29.893Z,1.57
2019-01-16T06:33:18.956Z,1.62
2019-01-16T06:36:04.708Z,1.39
2019-01-16T06:38:55.519Z,1.40
2019-01-16T06:41:44.867Z,1.58
2019-01-16T06:44:32.119Z,1.55
2019-01-16T06:47:22.746Z,1.48
2019-01-16T06:50:05.920Z,1.64
2019-01-16T06:52:48.939Z,1.59
2019-01-16T06:55:39.724Z,1.67
2019-01-16T06:58:20.692Z,1.56
2019-01-16T07:01:14.192Z,1.46
2019-01-16T07:04:04.979Z,1.44
2019-01-16T07:06:57.869Z,1.46
2019-01-16T07:09:40.823Z,1.36
2019-01-16T07:12:40.373Z,1.50
2019-01-16T07:15:46.558Z,1.33
2019-01-16T07:18:27.449Z,1.47
2019-01-16T07:21:16.567Z,1.45
2019-01-16T07:24:18.871Z,1.39
2019-01-16T07:27:18.374Z,1.41
2019-01-16T07:30:04.007Z,1.37
2019-01-16T07:32:57.485Z,1.45
2019-01-16T07:35:45.577Z,1.32
2019-01-16T07:38:34.949Z,1.44
2019-01-16T07:41:37.773Z,1.43
2019-01-16T07:44:27.083Z,1.29
2019-01-16T07:47:09.207Z,1.13
2019-01-16T07:50:17.217Z,1.30
2019-01-16T07:53:07.141Z,1.35
2019-01-16T07:55:52.235Z,1.46
2019-01-16T07:58:37.662Z,1.33
2019-01-16T08:01:27.132Z,1.47
2019-01-16T08:04:20.615Z,1.52
2019-01-16T08:07:11.397Z,1.40
2019-01-16T08:10:06.778Z,1.46
2019-01-16T08:13:00.254Z,1.46
2019-01-16T08:15:49.457Z,1.39
2019-01-16T08:18:39.908Z,1.61
2019-01-16T08:21:36.800Z,1.43
2019-01-16T08:24:27.425Z,1.65
2019-01-16T08:27:16.633Z,1.56
2019-01-16T08:30:10.209Z,1.55
2019-01-16T08:33:03.916Z,1.49
2019-01-16T08:35:48.805Z,1.48
2019-01-16T08:38:37.826Z,1.57
2019-01-16T08:41:34.246Z,1.66
2019-01-16T08:44:23.415Z,1.63
2019-01-16T08:47:13.107Z,1.59
2019-01-16T08:50:06.644Z,1.62
2019-01-16T08:53:00.814Z,1.65
2019-01-16T08:56:03.767Z,1.85
2019-01-16T08:58:53.068Z,1.82
2019-01-16T09:01:46.468Z,1.81
2019-01-16T09:04:39.867Z,1.97
2019-01-16T09:07:29.256Z,1.92
2019-01-16T09:10:26.674Z,2.00
2019-01-16T09:13:17.288Z,2.05
2019-01-16T09:16:17.114Z,2.05
2019-01-16T09:18:57.054Z,2.23
2019-01-16T09:21:46.430Z,2.17
2019-01-16T09:24:37.395Z,2.18
2019-01-16T09:27:31.896Z,2.14
2019-01-16T09:30:21.785Z,2.25
2019-01-16T09:33:13.544Z,2.19
2019-01-16T09:36:10.035Z,2.26
2019-01-16T09:39:03.261Z,2.21
2019-01-16T09:41:56.267Z,2.32
2019-01-16T09:44:45.650Z,2.22
2019-01-16T09:47:36.290Z,2.29
2019-01-16T09:50:29.059Z,2.30
2019-01-16T09:53:20.447Z,2.07
2019-01-16T09:56:05.481Z,2.29
2019-01-16T09:58:50.117Z,2.33
2019-01-16T10:01:46.835Z,2.36
2019-01-16T10:04:49.385Z,2.37
2019-01-16T10:07:45.832Z,2.50
2019-01-16T10:10:34.889Z,2.52
2019-01-16T10:13:31.686Z,2.56
2019-01-16T10:16:15.074Z,2.64
2019-01-16T10:18:56.801Z,2.66
2019-01-16T10:22:02.784Z,2.64
2019-01-16T10:24:51.624Z,2.59
2019-01-16T10:27:35.908Z,2.67
2019-01-16T10:30:30.197Z,2.72
2019-01-16T10:33:19.265Z,2.72
2019-01-16T10:36:10.064Z,2.69
2019-01-16T10:38:57.121Z,2.75
2019-01-16T10:41:53.838Z,2.83
2019-01-16T10:44:43.049Z,2.95
2019-01-16T10:47:32.347Z,2.96
2019-01-16T10:50:22.300Z,2.88
2019-01-16T10:53:23.797Z,2.88
2019-01-16T10:56:17.565Z,3.03
2019-01-16T10:59:09.192Z,3.11
2019-01-16T11:01:59.815Z,3.11
2019-01-16T11:04:53.783Z,3.17
2019-01-16T11:07:47.011Z,3.09
2019-01-16T11:10:46.818Z,3.05
2019-01-16T11:13:39.999Z,3.20
2019-01-16T11:16:40.642Z,3.16
2019-01-16T11:19:28.497Z,3.33
2019-01-16T11:22:31.041Z,3.47
2019-01-16T11:25:27.739Z,3.55
2019-01-16T11:28:21.439Z,3.69
2019-01-16T11:31:10.610Z,3.62
2019-01-16T11:33:54.640Z,3.58
2019-01-16T11:36:45.341Z,3.67
2019-01-16T11:39:34.749Z,3.88
2019-01-16T11:42:25.553Z,3.92
2019-01-16T11:45:19.783Z,4.03
2019-01-16T11:48:08.986Z,4.09
2019-01-16T11:51:04.122Z,4.24
2019-01-16T11:53:58.113Z,4.32
2019-01-16T11:57:00.887Z,4.34
2019-01-16T11:59:46.002Z,4.63
2019-01-16T12:02:39.695Z,4.61
2019-01-16T12:05:37.139Z,4.65
2019-01-16T12:08:23.652Z,4.57
2019-01-16T12:11:24.091Z,4.63
2019-01-16T12:14:08.753Z,4.63
2019-01-16T12:16:56.460Z,4.72
2019-01-16T12:19:42.553Z,4.75
2019-01-16T12:22:31.583Z,4.71
2019-01-16T12:25:20.733Z,4.72
2019-01-16T12:28:20.151Z,4.80
2019-01-16T12:31:25.990Z,4.79
2019-01-16T12:34:16.695Z,4.89
2019-01-16T12:37:22.506Z,4.70
2019-01-16T12:40:06.473Z,4.67
2019-01-16T12:42:49.712Z,4.71
2019-01-16T12:45:44.238Z,4.86
2019-01-16T12:48:44.769Z,4.91
2019-01-16T12:51:34.016Z,4.73
2019-01-16T12:54:43.177Z,4.78
2019-01-16T12:57:36.744Z,4.70
2019-01-16T13:00:37.953Z,4.79
2019-01-16T13:03:35.891Z,4.92
2019-01-16T13:06:29.486Z,4.95
2019-01-16T13:09:26.029Z,4.85
2019-01-16T13:12:15.131Z,4.80
2019-01-16T13:15:01.260Z,4.90
2019-01-16T13:17:50.378Z,4.96
2019-01-16T13:20:35.015Z,5.07
2019-01-16T13:23:30.852Z,5.38
2019-01-16T13:26:14.130Z,5.45
2019-01-16T13:29:03.781Z,5.38
2019-01-16T13:31:55.785Z,5.26
2019-01-16T13:34:41.793Z,5.31
2019-01-16T13:37:21.921Z,5.40
2019-01-16T13:40:04.371Z,5.46
2019-01-16T13:43:01.757Z,5.44
2019-01-16T13:46:01.433Z,5.39
2019-01-16T13:48:52.933Z,5.18
2019-01-16T13:51:55.815Z,4.96
2019-01-16T13:54:45.182Z,4.93
2019-01-16T13:57:39.352Z,4.80
2019-01-16T14:00:34.551Z,4.76
2019-01-16T14:03:28.491Z,4.79
2019-01-16T14:06:08.787Z,4.62
2019-01-16T14:09:05.364Z,4.65
2019-01-16T14:11:54.351Z,4.69
2019-01-16T14:14:52.354Z,4.72
2019-01-16T14:17:42.975Z,4.60
2019-01-16T14:20:31.368Z,4.56
2019-01-16T14:23:22.938Z,4.63
2019-01-16T14:26:16.745Z,4.69
2019-01-16T14:28:55.612Z,4.73
2019-01-16T14:31:41.549Z,4.68
2019-01-16T14:34:31.460Z,4.73
2019-01-16T14:37:26.524Z,4.73
2019-01-16T14:40:22.470Z,4.66
2019-01-16T14:43:07.310Z,4.68
2019-01-16T14:46:04.158Z,4.54
2019-01-16T14:48:53.364Z,4.52
2019-01-16T14:51:42.758Z,4.56
2019-01-16T14:54:39.232Z,4.53
2019-01-16T14:57:28.818Z,4.42
2019-01-16T15:00:37.917Z,4.46
2019-01-16T15:03:21.259Z,4.53
2019-01-16T15:06:02.910Z,4.31
2019-01-16T15:08:45.221Z,4.46
2019-01-16T15:11:47.534Z,4.22
2019-01-16T15:14:27.823Z,4.42
2019-01-16T15:17:17.192Z,4.35
2019-01-16T15:20:06.556Z,4.31
2019-01-16T15:22:50.452Z,4.27
2019-01-16T15:25:56.458Z,4.27
2019-01-16T15:28:45.859Z,4.25
2019-01-16T15:31:33.693Z,4.21
2019-01-16T15:34:23.995Z,4.17
2019-01-16T15:37:05.126Z,4.10
2019-01-16T15:40:04.144Z,4.01
2019-01-16T15:42:49.029Z,3.91
2019-01-16T15:45:38.284Z,3.84
2019-01-16T15:48:27.430Z,3.75
2019-01-16T15:51:17.024Z,3.56
2019-01-16T15:54:01.596Z,3.47
2019-01-16T15:57:10.470Z,3.29
2019-01-16T16:00:03.867Z,3.22
2019-01-16T16:02:50.142Z,3.09
2019-01-16T16:05:33.608Z,2.98
2019-01-16T16:08:24.636Z,2.97
2019-01-16T16:11:12.954Z,2.78
2019-01-16T16:13:54.479Z,2.77
2019-01-16T16:16:54.613Z,2.67
2019-01-16T16:19:54.300Z,2.59
2019-01-16T16:23:03.020Z,2.48
2019-01-16T16:26:00.011Z,2.48
2019-01-16T16:28:49.897Z,2.40
2019-01-16T16:31:40.924Z,2.34
2019-01-16T16:34:37.949Z,2.26
2019-01-16T16:37:41.173Z,2.22
2019-01-16T16:40:36.944Z,2.13
2019-01-16T16:43:21.975Z,2.06
2019-01-16T16:46:01.976Z,2.00
2019-01-16T16:48:47.775Z,1.93
2019-01-16T16:51:37.408Z,1.89
2019-01-16T16:54:34.702Z,1.86
2019-01-16T16:57:33.740Z,1.84
2019-01-16T17:00:19.469Z,1.78
2019-01-16T17:03:08.710Z,1.78
2019-01-16T17:06:05.621Z,1.76
2019-01-16T17:08:55.141Z,1.71
2019-01-16T17:11:56.735Z,1.68
2019-01-16T17:14:47.663Z,1.65
2019-01-16T17:17:37.198Z,1.65
2019-01-16T17:20:29.090Z,1.59
2019-01-16T17:23:19.970Z,1.57
2019-01-16T17:26:06.626Z,1.56
2019-01-16T17:29:00.635Z,1.54
2019-01-16T17:31:54.342Z,1.52
2019-01-16T17:34:51.188Z,1.48
2019-01-16T17:37:33.387Z,1.44
2019-01-16T17:40:27.510Z,1.41
2019-01-16T17:43:17.916Z,1.36
2019-01-16T17:46:27.078Z,1.36
2019-01-16T17:49:07.496Z,1.34
2019-01-16T17:51:56.944Z,1.35
2019-01-16T17:54:42.642Z,1.30
2019-01-16T17:57:32.185Z,1.25
2019-01-16T18:00:19.382Z,1.18
2019-01-16T18:03:03.066Z,1.13
2019-01-16T18:05:52.656Z,1.08
2019-01-16T18:08:49.456Z,1.05
2019-01-16T18:11:38.741Z,1.00
2019-01-16T18:14:44.328Z,0.97
2019-01-16T18:17:33.951Z,0.97
2019-01-16T18:20:34.606Z,0.96
2019-01-16T18:23:22.600Z,0.89
2019-01-16T18:26:02.172Z,0.81
2019-01-16T18:28:58.892Z,0.77
2019-01-16T18:31:49.726Z,0.73
2019-01-16T18:34:46.205Z,0.64
2019-01-16T18:37:52.174Z,0.59
2019-01-16T18:40:48.204Z,0.52
2019-01-16T18:43:37.690Z,0.55
2019-01-16T18:46:27.758Z,0.51
2019-01-16T18:49:11.696Z,0.48
2019-01-16T18:52:03.456Z,0.47
2019-01-16T18:54:54.266Z,0.45
2019-01-16T18:57:40.789Z,0.44
2019-01-16T19:00:35.774Z,0.43
2019-01-16T19:03:24.371Z,0.35
2019-01-16T19:06:13.658Z,0.35
2019-01-16T19:09:04.400Z,0.34
2019-01-16T19:11:55.590Z,0.30
2019-01-16T19:14:51.708Z,0.26
2019-01-16T19:17:54.885Z,0.27
2019-01-16T19:21:00.634Z,0.27
2019-01-16T19:23:50.065Z,0.28
2019-01-16T19:26:40.791Z,0.32
2019-01-16T19:29:49.585Z,0.43
2019-01-16T19:32:46.287Z,0.37
2019-01-16T19:35:46.394Z,0.55
2019-01-16T19:38:46.165Z,0.42
2019-01-16T19:41:39.851Z,0.51
2019-01-16T19:44:30.593Z,0.58
2019-01-16T19:47:30.491Z,0.48
2019-01-16T19:50:20.019Z,0.59
2019-01-16T19:53:15.716Z,0.52
2019-01-16T19:56:15.989Z,0.44
2019-01-16T19:59:06.755Z,0.38
2019-01-16T20:02:06.418Z,0.32
2019-01-16T20:04:55.645Z,0.28
2019-01-16T20:07:49.769Z,0.32
2019-01-16T20:10:43.696Z,0.35
2019-01-16T20:13:35.629Z,0.50
2019-01-16T20:16:22.373Z,0.47
2019-01-16T20:19:13.183Z,0.39
2019-01-16T20:22:00.401Z,0.41
2019-01-16T20:24:49.524Z,0.35
2019-01-16T20:27:49.760Z,0.34
2019-01-16T20:30:39.051Z,0.42
2019-01-16T20:33:41.699Z,0.37
2019-01-16T20:36:28.597Z,0.42
2019-01-16T20:39:18.559Z,0.33
2019-01-16T20:42:08.603Z,0.28
2019-01-16T20:44:57.761Z,0.27
2019-01-16T20:47:43.737Z,0.19
2019-01-16T20:50:26.609Z,0.20
2019-01-16T20:53:17.597Z,0.22
2019-01-16T20:56:02.253Z,0.25
2019-01-16T20:59:04.850Z,0.18
2019-01-16T21:02:00.249Z,0.21
2019-01-16T21:04:45.041Z,0.24
2019-01-16T21:07:42.315Z,0.42
2019-01-16T21:10:23.414Z,0.48
2019-01-16T21:13:05.577Z,0.71
2019-01-16T21:15:55.627Z,0.90
2019-01-16T21:18:45.161Z,1.12
2019-01-16T21:21:32.003Z,1.25
2019-01-16T21:24:25.664Z,1.37
2019-01-16T21:27:24.074Z,1.45
2019-01-16T21:30:13.371Z,1.38
2019-01-16T21:33:02.830Z,1.55
2019-01-16T21:36:05.812Z,1.70
2019-01-16T21:38:55.317Z,1.78
2019-01-16T21:41:55.180Z,1.68
2019-01-16T21:44:44.113Z,1.60
2019-01-16T21:47:43.495Z,1.58
2019-01-16T21:50:28.996Z,1.65
2019-01-16T21:53:17.455Z,1.45
2019-01-16T21:56:08.324Z,1.31
2019-01-16T21:58:59.071Z,1.19
2019-01-16T22:01:39.637Z,1.05
2019-01-16T22:04:29.128Z,1.03
2019-01-16T22:07:18.737Z,0.95
2019-01-16T22:10:09.459Z,0.90
2019-01-16T22:12:58.846Z,0.87
2019-01-16T22:15:55.869Z,0.87
2019-01-16T22:18:45.806Z,0.79
2019-01-16T22:21:45.656Z,0.78
2019-01-16T22:24:42.131Z,0.76
2019-01-16T22:27:40.677Z,0.76
2019-01-16T22:30:32.547Z,0.73
2019-01-16T22:33:21.761Z,0.67
2019-01-16T22:36:24.544Z,0.70
2019-01-16T22:39:14.051Z,0.68
2019-01-16T22:41:59.905Z,0.73
2019-01-16T22:44:47.342Z,0.73
2019-01-16T22:47:49.894Z,0.70
2019-01-16T22:50:33.471Z,0.63
2019-01-16T22:53:25.148Z,0.64
2019-01-16T22:56:21.604Z,0.77
2019-01-16T22:59:10.933Z,0.78
2019-01-16T23:02:10.472Z,0.80
2019-01-16T23:05:08.267Z,0.79
2019-01-16T23:07:56.148Z,0.85
2019-01-16T23:10:58.796Z,0.91
2019-01-16T23:13:49.448Z,0.90
2019-01-16T23:16:49.277Z,0.95
2019-01-16T23:19:35.040Z,1.05
2019-01-16T23:22:24.302Z,1.02
2019-01-16T23:25:15.092Z,1.02
2019-01-16T23:28:05.269Z,0.98
2019-01-16T23:30:51.751Z,0.97
2019-01-16T23:33:45.609Z,0.96
2019-01-16T23:36:30.370Z,0.89
2019-01-16T23:39:35.715Z,0.82
2019-01-16T23:42:31.998Z,0.84
2019-01-16T23:45:29.493Z,0.91
2019-01-16T23:48:38.169Z,0.90
2019-01-16T23:51:37.255Z,0.89
2019-01-16T23:54:26.504Z,0.89
2019-01-16T23:57:15.864Z,0.76
